createdAt,value
2023-05-17T00:00:31.018Z,5.60
2023-05-17T00:03:02.066Z,5.60
2023-05-17T00:05:30.252Z,9.13
2023-05-17T00:08:01.180Z,6.35
2023-05-17T00:10:29.306Z,4.90
2023-05-17T00:12:57.754Z,6.90
2023-05-17T00:15:26.062Z,7.18
2023-05-17T00:17:55.582Z,6.07
2023-05-17T00:20:23.620Z,5.88
2023-05-17T00:22:51.576Z,5.28
2023-05-17T00:25:19.554Z,5.10
2023-05-17T00:27:47.643Z,6.53
2023-05-17T00:30:15.854Z,7.13
2023-05-17T00:32:45.573Z,7.70
2023-05-17T00:35:15.195Z,5.43
2023-05-17T00:37:47.647Z,6.80
2023-05-17T00:40:16.834Z,5.68
2023-05-17T00:42:44.741Z,10.40
2023-05-17T00:45:12.815Z,5.25
2023-05-17T00:47:41.556Z,5.63
2023-05-17T00:50:10.463Z,10.02
2023-05-17T00:52:40.044Z,6.47
2023-05-17T00:55:08.443Z,9.07
2023-05-17T00:57:36.785Z,6.00
2023-05-17T01:00:05.899Z,4.95
2023-05-17T01:02:33.929Z,7.80
2023-05-17T01:05:02.567Z,4.85
2023-05-17T01:07:30.603Z,8.50
2023-05-17T01:10:00.405Z,5.90
2023-05-17T01:12:39.027Z,7.28
2023-05-17T01:15:14.567Z,6.28
2023-05-17T01:17:53.189Z,6.32
2023-05-17T01:20:28.387Z,5.07
2023-05-17T01:23:28.545Z,7.68
2023-05-17T01:26:05.923Z,6.15
2023-05-17T01:28:36.141Z,7.68
2023-05-17T01:31:04.845Z,6.90
2023-05-17T01:33:33.761Z,7.70
2023-05-17T01:36:01.763Z,6.43
2023-05-17T01:38:29.706Z,9.40
2023-05-17T01:41:03.757Z,5.65
2023-05-17T01:43:42.754Z,4.93
2023-05-17T01:46:16.257Z,3.90
2023-05-17T01:48:51.075Z,6.43
2023-05-17T01:51:22.953Z,5.13
2023-05-17T01:53:58.724Z,7.80
2023-05-17T01:56:34.684Z,5.97
2023-05-17T01:59:07.688Z,9.32
2023-05-17T02:01:37.630Z,5.32
2023-05-17T02:04:06.543Z,5.22
2023-05-17T02:06:34.464Z,8.63
2023-05-17T02:09:03.204Z,7.75
2023-05-17T02:11:32.395Z,6.80
2023-05-17T02:14:00.460Z,5.75
2023-05-17T02:16:30.072Z,7.75
2023-05-17T02:18:58.226Z,7.78
2023-05-17T02:21:26.249Z,7.75
2023-05-17T02:23:57.490Z,6.95
2023-05-17T02:26:25.556Z,7.47
2023-05-17T02:28:56.489Z,8.63
2023-05-17T02:31:24.968Z,5.78
2023-05-17T02:33:54.528Z,5.05
2023-05-17T02:36:22.711Z,6.78
2023-05-17T02:38:50.712Z,5.30
2023-05-17T02:41:20.965Z,7.97
2023-05-17T02:43:48.948Z,6.90
2023-05-17T02:46:16.877Z,6.25
2023-05-17T02:48:44.868Z,7.57
2023-05-17T02:51:14.317Z,5.57
2023-05-17T02:53:42.301Z,8.00
2023-05-17T02:56:10.234Z,8.77
2023-05-17T02:58:38.171Z,6.25
2023-05-17T03:01:06.155Z,5.40
2023-05-17T03:03:34.335Z,5.28
2023-05-17T03:06:02.798Z,7.22
2023-05-17T03:08:32.388Z,7.72
2023-05-17T03:11:00.383Z,5.07
2023-05-17T03:13:28.322Z,6.30
2023-05-17T03:15:56.329Z,5.78
2023-05-17T03:18:24.659Z,9.50
2023-05-17T03:20:52.785Z,6.43
2023-05-17T03:23:21.521Z,7.25
2023-05-17T03:25:50.938Z,4.40
2023-05-17T03:28:18.925Z,7.38
2023-05-17T03:30:46.933Z,6.32
2023-05-17T03:33:14.955Z,5.15
2023-05-17T03:35:42.982Z,6.32
2023-05-17T03:38:10.892Z,6.03
2023-05-17T03:40:38.905Z,7.45
2023-05-17T03:43:08.319Z,6.47
2023-05-17T03:45:36.273Z,6.07
2023-05-17T03:48:04.447Z,9.02
2023-05-17T03:50:32.763Z,4.18
2023-05-17T03:53:01.881Z,8.48
2023-05-17T03:55:30.116Z,6.28
2023-05-17T03:57:58.213Z,6.53
2023-05-17T04:00:30.123Z,6.47
2023-05-17T04:02:58.175Z,7.68
2023-05-17T04:05:26.836Z,5.72
2023-05-17T04:07:55.529Z,8.60
2023-05-17T04:10:25.728Z,6.07
2023-05-17T04:12:54.045Z,6.03
2023-05-17T04:15:22.111Z,7.80
2023-05-17T04:17:51.857Z,4.70
2023-05-17T04:20:20.122Z,7.53
2023-05-17T04:22:48.055Z,5.72
2023-05-17T04:25:17.164Z,6.05
2023-05-17T04:27:46.024Z,6.93
2023-05-17T04:30:14.518Z,5.95
2023-05-17T04:32:43.330Z,5.85
2023-05-17T04:35:12.844Z,5.82
2023-05-17T04:37:40.801Z,6.03
2023-05-17T04:40:10.057Z,7.18
2023-05-17T04:42:38.128Z,4.45
2023-05-17T04:45:07.096Z,7.68
2023-05-17T04:47:35.137Z,6.78
2023-05-17T04:50:04.733Z,6.47
2023-05-17T04:52:34.110Z,6.60
2023-05-17T04:55:02.111Z,5.15
2023-05-17T04:57:30.068Z,6.15
2023-05-17T04:59:58.153Z,5.13
2023-05-17T05:02:26.098Z,8.65
2023-05-17T05:04:54.193Z,5.90
2023-05-17T05:07:26.740Z,5.05
2023-05-17T05:09:56.048Z,6.88
2023-05-17T05:12:24.073Z,7.82
2023-05-17T05:14:52.014Z,7.10
2023-05-17T05:17:20.692Z,5.63
2023-05-17T05:19:48.776Z,5.50
2023-05-17T05:22:16.742Z,6.78
2023-05-17T05:24:44.729Z,4.97
2023-05-17T05:27:14.049Z,4.45
2023-05-17T05:29:42.597Z,6.45
2023-05-17T05:32:10.684Z,8.70
2023-05-17T05:34:39.690Z,6.72
2023-05-17T05:37:07.701Z,10.85
2023-05-17T05:39:35.730Z,6.18
2023-05-17T05:42:04.321Z,7.20
2023-05-17T05:44:33.753Z,6.22
2023-05-17T05:47:05.112Z,5.60
2023-05-17T05:49:33.067Z,8.48
2023-05-17T05:52:01.023Z,7.05
2023-05-17T05:54:28.972Z,8.13
2023-05-17T05:56:56.994Z,9.35
2023-05-17T05:59:24.993Z,6.07
2023-05-17T06:01:54.332Z,6.03
2023-05-17T06:04:29.748Z,6.70
2023-05-17T06:07:04.861Z,8.45
2023-05-17T06:09:32.818Z,5.93
2023-05-17T06:12:03.171Z,5.72
2023-05-17T06:14:31.174Z,6.85
2023-05-17T06:17:00.507Z,8.13
2023-05-17T06:19:28.750Z,7.47
2023-05-17T06:21:56.892Z,6.88
2023-05-17T06:24:25.113Z,6.30
2023-05-17T06:26:53.008Z,5.80
2023-05-17T06:29:21.029Z,9.38
2023-05-17T06:31:49.527Z,5.72
2023-05-17T06:34:18.851Z,5.15
2023-05-17T06:36:46.817Z,5.57
2023-05-17T06:39:14.858Z,6.95
2023-05-17T06:41:43.008Z,7.65
2023-05-17T06:44:13.832Z,6.05
2023-05-17T06:46:41.886Z,7.97
2023-05-17T06:49:10.066Z,3.80
2023-05-17T06:51:39.454Z,6.88
2023-05-17T06:54:07.474Z,4.28
2023-05-17T06:56:35.543Z,9.05
2023-05-17T06:59:03.491Z,6.88
2023-05-17T07:01:31.642Z,5.75
2023-05-17T07:03:59.829Z,8.40
2023-05-17T07:06:27.923Z,6.90
2023-05-17T07:08:57.261Z,8.95
2023-05-17T07:11:25.278Z,9.93
2023-05-17T07:13:54.539Z,5.70
2023-05-17T07:16:22.635Z,5.97
2023-05-17T07:18:50.665Z,9.65
2023-05-17T07:21:21.593Z,6.43
2023-05-17T07:23:49.564Z,6.43
2023-05-17T07:26:20.389Z,4.82
2023-05-17T07:28:48.357Z,4.88
2023-05-17T07:31:16.771Z,5.40
2023-05-17T07:33:44.817Z,5.00
2023-05-17T07:36:12.939Z,9.85
2023-05-17T07:38:41.011Z,4.32
2023-05-17T07:41:09.901Z,3.05
2023-05-17T07:43:39.339Z,5.25
2023-05-17T07:46:07.396Z,4.85
2023-05-17T07:48:35.510Z,10.90
2023-05-17T07:51:03.493Z,16.33
2023-05-17T07:53:31.460Z,15.52
2023-05-17T07:55:59.515Z,12.43
2023-05-17T07:58:27.431Z,10.10
2023-05-17T08:00:56.822Z,10.82
2023-05-17T08:03:24.842Z,8.13
2023-05-17T08:05:52.793Z,12.63
2023-05-17T08:08:21.158Z,6.50
2023-05-17T08:10:50.266Z,11.27
2023-05-17T08:13:18.235Z,6.32
2023-05-17T08:15:46.345Z,8.35
2023-05-17T08:18:15.799Z,8.77
2023-05-17T08:20:43.894Z,10.65
2023-05-17T08:23:11.832Z,8.15
2023-05-17T08:25:39.869Z,6.47
2023-05-17T08:28:07.825Z,7.78
2023-05-17T08:30:35.863Z,5.28
2023-05-17T08:33:03.969Z,6.30
2023-05-17T08:35:33.687Z,9.57
2023-05-17T08:38:01.880Z,5.38
2023-05-17T08:40:30.252Z,5.15
2023-05-17T08:42:59.142Z,7.25
2023-05-17T08:45:29.451Z,6.35
2023-05-17T08:47:57.810Z,4.65
2023-05-17T08:50:27.327Z,7.38
2023-05-17T08:52:58.376Z,6.40
2023-05-17T08:55:28.216Z,4.45
2023-05-17T08:57:57.060Z,7.75
2023-05-17T09:00:28.997Z,6.40
2023-05-17T09:03:00.804Z,8.95
2023-05-17T09:05:29.541Z,5.97
2023-05-17T09:08:03.237Z,8.70
2023-05-17T09:10:31.797Z,15.85
2023-05-17T09:12:59.840Z,19.30
2023-05-17T09:15:27.778Z,17.42
2023-05-17T09:17:56.285Z,19.60
2023-05-17T09:20:25.747Z,16.60
2023-05-17T09:22:53.787Z,11.15
2023-05-17T09:25:25.570Z,13.70
2023-05-17T09:27:54.358Z,15.05
2023-05-17T09:30:28.411Z,10.52
2023-05-17T09:32:57.713Z,11.05
2023-05-17T09:35:30.335Z,11.45
2023-05-17T09:38:09.132Z,9.88
2023-05-17T09:40:41.568Z,8.15
2023-05-17T09:43:10.660Z,10.60
2023-05-17T09:45:38.824Z,9.50
2023-05-17T09:48:15.031Z,7.07
2023-05-17T09:50:47.269Z,9.88
2023-05-17T09:53:26.453Z,11.18
2023-05-17T09:56:00.398Z,8.02
2023-05-17T09:58:29.468Z,9.55
2023-05-17T10:01:01.666Z,8.18
2023-05-17T10:06:01.617Z,5.43
2023-05-17T10:08:31.013Z,7.25
2023-05-17T10:11:05.180Z,9.82
2023-05-17T10:13:37.212Z,6.13
2023-05-17T10:16:05.826Z,7.35
2023-05-17T10:18:34.609Z,5.70
2023-05-17T10:21:03.147Z,7.75
2023-05-17T10:23:32.118Z,8.50
2023-05-17T10:26:02.504Z,8.20
2023-05-17T10:28:31.656Z,7.35
2023-05-17T10:31:00.945Z,7.00
2023-05-17T10:33:29.171Z,8.20
2023-05-17T10:35:57.407Z,8.15
2023-05-17T10:38:38.712Z,8.50
2023-05-17T10:41:14.829Z,6.30
2023-05-17T10:43:44.744Z,5.00
2023-05-17T10:46:21.293Z,6.75
2023-05-17T10:48:52.126Z,7.72
2023-05-17T10:51:25.205Z,5.70
2023-05-17T10:54:06.406Z,4.20
2023-05-17T10:56:42.693Z,6.10
2023-05-17T10:59:18.688Z,6.85
2023-05-17T11:01:53.452Z,6.03
2023-05-17T11:04:24.144Z,8.25
2023-05-17T11:06:53.860Z,7.22
2023-05-17T11:09:24.900Z,8.45
2023-05-17T11:12:10.868Z,6.72
2023-05-17T11:14:48.714Z,8.18
2023-05-17T11:17:18.874Z,7.75
2023-05-17T11:20:11.626Z,6.13
2023-05-17T11:22:42.474Z,5.90
2023-05-17T11:25:13.223Z,4.50
2023-05-17T11:27:47.082Z,6.72
2023-05-17T11:30:21.902Z,6.82
2023-05-17T11:32:54.289Z,4.03
2023-05-17T11:37:54.427Z,6.13
2023-05-17T11:40:29.038Z,3.42
2023-05-17T11:43:19.221Z,6.10
2023-05-17T11:45:52.906Z,5.68
2023-05-17T11:48:23.193Z,4.90
2023-05-17T11:50:52.740Z,3.30
2023-05-17T11:53:21.588Z,4.55
2023-05-17T11:55:51.775Z,5.00
2023-05-17T11:58:22.524Z,4.20
2023-05-17T12:00:54.959Z,2.70
2023-05-17T12:03:24.524Z,4.65
2023-05-17T12:06:03.378Z,5.60
2023-05-17T12:08:35.316Z,3.60
2023-05-17T12:11:03.948Z,4.45
2023-05-17T12:13:36.759Z,6.95
2023-05-17T12:16:08.701Z,6.45
2023-05-17T12:18:38.651Z,4.38
2023-05-17T12:21:07.783Z,4.72
2023-05-17T12:23:37.433Z,2.55
2023-05-17T12:26:10.509Z,3.33
2023-05-17T12:28:41.619Z,5.32
2023-05-17T12:31:12.048Z,5.88
2023-05-17T12:33:42.626Z,6.57
2023-05-17T12:36:12.133Z,5.20
2023-05-17T12:38:42.177Z,7.20
2023-05-17T12:41:13.216Z,10.05
2023-05-17T12:43:45.051Z,4.82
2023-05-17T12:46:14.853Z,8.40
2023-05-17T12:48:44.116Z,8.73
2023-05-17T12:51:16.153Z,6.53
2023-05-17T12:53:46.081Z,5.07
2023-05-17T12:56:19.021Z,4.05
2023-05-17T12:59:05.777Z,8.43
2023-05-17T13:01:35.062Z,6.00
2023-05-17T13:04:03.290Z,10.60
2023-05-17T13:06:45.002Z,7.75
2023-05-17T13:09:16.554Z,4.13
2023-05-17T13:11:44.563Z,7.70
2023-05-17T13:14:13.943Z,6.93
2023-05-17T13:16:42.982Z,7.15
2023-05-17T13:19:15.088Z,6.75
2023-05-17T13:21:43.218Z,5.25
2023-05-17T13:24:11.499Z,5.40
2023-05-17T13:26:39.501Z,7.68
2023-05-17T13:29:07.529Z,6.00
2023-05-17T13:31:36.889Z,10.18
2023-05-17T13:34:05.100Z,4.45
2023-05-17T13:36:33.190Z,6.57
2023-05-17T13:39:02.149Z,7.75
2023-05-17T13:41:30.312Z,7.88
2023-05-17T13:43:58.404Z,5.20
2023-05-17T13:46:26.475Z,9.40
2023-05-17T13:48:55.854Z,6.55
2023-05-17T13:51:25.494Z,7.15
2023-05-17T13:53:53.538Z,4.47
2023-05-17T13:56:22.378Z,5.88
2023-05-17T13:58:50.646Z,4.68
2023-05-17T14:01:19.052Z,7.68
2023-05-17T14:03:47.169Z,4.22
2023-05-17T14:06:16.691Z,8.18
2023-05-17T14:08:46.342Z,7.55
2023-05-17T14:11:14.389Z,7.00
2023-05-17T14:13:42.780Z,8.75
2023-05-17T14:16:10.774Z,6.03
2023-05-17T14:18:38.855Z,7.90
2023-05-17T14:21:08.184Z,6.68
2023-05-17T14:23:37.759Z,5.38
2023-05-17T14:26:07.415Z,4.10
2023-05-17T14:28:38.270Z,4.45
2023-05-17T14:31:07.537Z,5.43
2023-05-17T14:33:36.009Z,8.45
2023-05-17T14:36:04.706Z,4.22
2023-05-17T14:38:32.946Z,7.82
2023-05-17T14:41:02.404Z,5.28
2023-05-17T14:43:30.679Z,6.78
2023-05-17T14:45:58.641Z,4.55
2023-05-17T14:48:26.750Z,5.95
2023-05-17T14:50:54.720Z,5.40
2023-05-17T14:53:26.057Z,5.03
2023-05-17T14:55:54.337Z,2.73
2023-05-17T14:58:25.193Z,2.63
2023-05-17T15:01:04.996Z,3.47
2023-05-17T15:03:34.238Z,4.88
2023-05-17T15:06:06.239Z,6.30
2023-05-17T15:08:35.879Z,5.22
2023-05-17T15:11:04.032Z,6.72
2023-05-17T15:13:33.453Z,5.32
2023-05-17T15:16:02.961Z,4.22
2023-05-17T15:18:31.402Z,7.03
2023-05-17T15:20:59.389Z,5.07
2023-05-17T15:23:27.336Z,5.70
2023-05-17T15:25:55.371Z,4.25
2023-05-17T15:28:23.881Z,6.45
2023-05-17T15:31:02.733Z,5.93
2023-05-17T15:33:32.213Z,3.88
2023-05-17T15:36:00.360Z,5.78
2023-05-17T15:38:28.345Z,4.47
2023-05-17T15:41:04.280Z,1.55
2023-05-17T15:43:33.254Z,5.18
2023-05-17T15:46:05.299Z,6.18
2023-05-17T15:48:34.194Z,5.47
2023-05-17T15:51:02.778Z,3.47
2023-05-17T15:53:31.470Z,3.70
2023-05-17T15:55:59.451Z,3.22
2023-05-17T15:58:28.646Z,5.00
2023-05-17T16:00:56.662Z,6.43
2023-05-17T16:03:25.991Z,2.70
2023-05-17T16:05:53.987Z,5.15
2023-05-17T16:08:23.241Z,4.90
2023-05-17T16:10:51.293Z,4.88
2023-05-17T16:13:19.275Z,3.13
2023-05-17T16:15:47.286Z,4.88
2023-05-17T16:18:15.680Z,4.03
2023-05-17T16:20:45.575Z,7.63
2023-05-17T16:23:13.631Z,6.28
2023-05-17T16:25:41.640Z,2.67
2023-05-17T16:28:09.581Z,8.05
2023-05-17T16:30:38.077Z,3.70
2023-05-17T16:33:08.389Z,4.53
2023-05-17T16:35:36.630Z,6.68
2023-05-17T16:38:05.927Z,5.65
2023-05-17T16:40:34.104Z,2.10
2023-05-17T16:43:02.151Z,2.92
2023-05-17T16:45:30.386Z,5.90
2023-05-17T16:47:58.584Z,4.15
2023-05-17T16:50:26.789Z,4.35
2023-05-17T16:52:54.789Z,6.30
2023-05-17T16:55:24.210Z,5.35
2023-05-17T16:57:52.422Z,3.92
2023-05-17T17:00:21.457Z,4.95
2023-05-17T17:02:52.511Z,3.05
2023-05-17T17:05:21.301Z,3.17
2023-05-17T17:07:49.253Z,6.63
2023-05-17T17:10:17.250Z,3.08
2023-05-17T17:12:46.720Z,2.83
2023-05-17T17:15:15.597Z,3.70
2023-05-17T17:17:46.557Z,5.88
2023-05-17T17:20:15.011Z,4.85
2023-05-17T17:22:42.966Z,5.25
2023-05-17T17:25:11.428Z,3.33
2023-05-17T17:27:39.414Z,3.67
2023-05-17T17:30:09.879Z,4.68
2023-05-17T17:32:37.953Z,2.10
2023-05-17T17:35:06.815Z,5.47
2023-05-17T17:37:34.720Z,4.35
2023-05-17T17:40:02.796Z,4.22
2023-05-17T17:42:32.115Z,1.95
2023-05-17T17:45:00.421Z,4.65
2023-05-17T17:47:29.770Z,4.80
2023-05-17T17:49:57.803Z,2.58
2023-05-17T17:52:25.808Z,5.93
2023-05-17T17:54:53.759Z,2.50
2023-05-17T17:57:22.901Z,5.10
2023-05-17T17:59:50.937Z,5.93
2023-05-17T18:02:18.930Z,4.50
2023-05-17T18:04:48.415Z,4.45
2023-05-17T18:07:18.392Z,5.18
2023-05-17T18:09:46.477Z,3.95
2023-05-17T18:12:14.502Z,4.95
2023-05-17T18:14:42.460Z,2.60
2023-05-17T18:17:10.570Z,4.13
2023-05-17T18:19:38.496Z,4.72
2023-05-17T18:22:07.940Z,3.78
2023-05-17T18:24:35.964Z,4.03
2023-05-17T18:27:03.951Z,4.90
2023-05-17T18:29:32.028Z,4.88
2023-05-17T18:32:01.635Z,4.75
2023-05-17T18:34:29.739Z,2.50
2023-05-17T18:37:00.222Z,3.33
2023-05-17T18:39:30.191Z,7.03
2023-05-17T18:41:58.209Z,3.70
2023-05-17T18:44:26.296Z,4.30
2023-05-17T18:46:54.869Z,4.57
2023-05-17T18:49:22.924Z,3.75
2023-05-17T18:51:50.909Z,5.85
2023-05-17T18:54:18.949Z,5.70
2023-05-17T18:56:48.283Z,4.53
2023-05-17T18:59:16.324Z,2.15
2023-05-17T19:01:47.463Z,4.45
2023-05-17T19:04:15.552Z,3.90
2023-05-17T19:06:43.603Z,8.27
2023-05-17T19:09:11.569Z,5.55
2023-05-17T19:11:39.578Z,4.72
2023-05-17T19:14:08.971Z,6.13
2023-05-17T19:16:36.957Z,3.78
2023-05-17T19:19:06.336Z,5.00
2023-05-17T19:21:34.649Z,6.18
2023-05-17T19:24:02.817Z,3.85
2023-05-17T19:26:30.768Z,3.08
2023-05-17T19:28:58.728Z,5.88
2023-05-17T19:31:28.115Z,3.13
2023-05-17T19:33:57.037Z,3.30
2023-05-17T19:36:25.045Z,2.83
2023-05-17T19:38:53.282Z,4.30
2023-05-17T19:41:21.974Z,4.10
2023-05-17T19:43:50.045Z,4.38
2023-05-17T19:46:18.071Z,4.70
2023-05-17T19:48:48.035Z,3.85
2023-05-17T19:51:16.159Z,4.88
2023-05-17T19:53:52.454Z,3.38
2023-05-17T19:56:21.740Z,5.35
2023-05-17T19:58:49.778Z,3.40
2023-05-17T20:01:17.913Z,1.92
2023-05-17T20:03:47.350Z,3.83
2023-05-17T20:06:15.454Z,2.83
2023-05-17T20:08:43.580Z,4.93
2023-05-17T20:11:11.985Z,4.97
2023-05-17T20:13:40.756Z,4.45
2023-05-17T20:16:12.696Z,3.47
2023-05-17T20:21:15.176Z,3.22
2023-05-17T20:23:43.377Z,2.65
2023-05-17T20:26:16.812Z,5.05
2023-05-17T20:28:45.122Z,3.33
2023-05-17T20:31:13.404Z,2.17
2023-05-17T20:33:41.389Z,3.92
2023-05-17T20:36:11.778Z,3.10
2023-05-17T20:38:41.228Z,4.00
2023-05-17T20:41:11.110Z,4.13
2023-05-17T20:43:45.464Z,3.85
2023-05-17T20:46:13.864Z,4.80
2023-05-17T20:48:43.228Z,2.47
2023-05-17T20:51:11.756Z,4.60
2023-05-17T20:53:41.514Z,6.53
2023-05-17T20:56:09.500Z,4.07
2023-05-17T20:58:37.673Z,4.50
2023-05-17T21:01:05.817Z,2.63
2023-05-17T21:03:35.036Z,4.35
2023-05-17T21:06:05.243Z,5.70
2023-05-17T21:08:33.878Z,3.03
2023-05-17T21:11:03.214Z,5.75
2023-05-17T21:13:31.439Z,7.85
2023-05-17T21:15:59.781Z,4.45
2023-05-17T21:18:27.789Z,3.47
2023-05-17T21:20:56.154Z,4.60
2023-05-17T21:23:24.156Z,3.35
2023-05-17T21:25:52.119Z,2.95
2023-05-17T21:28:21.455Z,3.75
2023-05-17T21:30:49.445Z,3.28
2023-05-17T21:33:20.415Z,5.70
2023-05-17T21:35:48.474Z,3.35
2023-05-17T21:38:16.464Z,4.50
2023-05-17T21:40:44.401Z,3.75
2023-05-17T21:43:12.417Z,4.47
2023-05-17T21:45:41.927Z,2.92
2023-05-17T21:48:10.105Z,3.78
2023-05-17T21:50:38.112Z,4.13
2023-05-17T21:53:06.072Z,3.97
2023-05-17T21:55:36.792Z,4.72
2023-05-17T21:58:16.248Z,3.85
2023-05-17T22:00:45.612Z,5.15
2023-05-17T22:03:13.677Z,2.67
2023-05-17T22:05:44.537Z,5.30
2023-05-17T22:08:12.553Z,2.10
2023-05-17T22:10:42.109Z,3.55
2023-05-17T22:13:12.269Z,6.18
2023-05-17T22:15:41.615Z,2.85
2023-05-17T22:18:12.439Z,4.35
2023-05-17T22:20:43.242Z,2.50
2023-05-17T22:23:11.196Z,5.45
2023-05-17T22:25:39.164Z,4.03
2023-05-17T22:28:07.111Z,4.15
2023-05-17T22:30:35.042Z,4.10
2023-05-17T22:33:03.118Z,2.38
2023-05-17T22:35:32.514Z,4.55
2023-05-17T22:38:00.494Z,3.15
2023-05-17T22:40:28.848Z,3.60
2023-05-17T22:42:58.179Z,2.63
2023-05-17T22:45:32.807Z,6.93
2023-05-17T22:48:03.053Z,1.98
2023-05-17T22:50:32.768Z,4.43
2023-05-17T22:53:01.213Z,3.63
2023-05-17T22:55:29.465Z,3.28
2023-05-17T22:57:57.827Z,4.45
2023-05-17T23:00:26.245Z,5.07
2023-05-17T23:02:54.353Z,2.97
2023-05-17T23:05:22.897Z,1.58
2023-05-17T23:07:52.346Z,4.70
2023-05-17T23:10:23.482Z,2.45
2023-05-17T23:12:58.222Z,3.65
2023-05-17T23:15:26.786Z,2.47
2023-05-17T23:17:54.913Z,1.58
2023-05-17T23:20:25.911Z,2.95
2023-05-17T23:22:56.189Z,5.05
2023-05-17T23:25:24.324Z,4.47
2023-05-17T23:27:52.266Z,3.97
2023-05-17T23:30:20.848Z,5.65
2023-05-17T23:32:51.230Z,3.95
2023-05-17T23:35:19.329Z,2.95
2023-05-17T23:37:47.303Z,3.13
2023-05-17T23:40:17.420Z,2.17
2023-05-17T23:42:46.162Z,3.92
2023-05-17T23:45:14.289Z,2.72
2023-05-17T23:47:42.237Z,3.50
2023-05-17T23:50:13.227Z,4.65
2023-05-17T23:52:41.195Z,5.03
2023-05-17T23:55:10.089Z,3.00
2023-05-17T23:57:40.099Z,4.03
